createdAt,value
2022-08-26T00:01:28.975Z,99949.55
2022-08-26T00:04:04.180Z,99950.28
2022-08-26T00:06:37.444Z,99950.88
2022-08-26T00:09:10.947Z,99946.32
2022-08-26T00:11:44.748Z,99944.48
2022-08-26T00:14:19.918Z,99939.59
2022-08-26T00:16:53.638Z,99947.67
2022-08-26T00:19:28.354Z,99944.52
2022-08-26T00:22:01.185Z,99928.46
2022-08-26T00:24:35.412Z,99927.88
2022-08-26T00:27:08.964Z,99923.53
2022-08-26T00:29:43.876Z,99939.58
2022-08-26T00:32:18.556Z,99936.38
2022-08-26T00:34:52.069Z,99937.21
2022-08-26T00:37:25.781Z,99933.51
2022-08-26T00:39:59.227Z,99933.09
2022-08-26T00:42:34.510Z,99919.90
2022-08-26T00:45:10.227Z,99922.86
2022-08-26T00:47:54.000Z,99931.73
2022-08-26T00:50:31.501Z,99920.45
2022-08-26T00:53:27.975Z,99898.69
2022-08-26T00:56:20.771Z,99917.71
2022-08-26T00:58:56.236Z,99928.02
2022-08-26T01:01:30.974Z,99929.46
2022-08-26T01:04:06.234Z,99932.21
2022-08-26T01:06:40.176Z,99920.20
2022-08-26T01:09:18.539Z,99912.25
2022-08-26T01:11:55.651Z,99923.90
2022-08-26T01:14:35.044Z,99912.13
2022-08-26T01:17:12.300Z,99912.37
2022-08-26T01:19:51.916Z,99921.55
2022-08-26T01:22:35.760Z,99913.20
2022-08-26T01:25:10.479Z,99922.86
2022-08-26T01:27:44.029Z,99913.17
2022-08-26T01:30:19.809Z,99923.15
2022-08-26T01:32:53.919Z,99924.88
2022-08-26T01:35:27.443Z,99923.85
2022-08-26T01:38:02.665Z,99926.23
2022-08-26T01:40:40.554Z,99912.83
2022-08-26T01:43:22.508Z,99921.04
2022-08-26T01:45:57.574Z,99921.02
2022-08-26T01:48:33.526Z,99917.98
2022-08-26T01:51:11.312Z,99913.85
2022-08-26T01:53:46.343Z,99917.16
2022-08-26T01:56:20.463Z,99904.49
2022-08-26T01:59:03.308Z,99905.98
2022-08-26T02:01:39.110Z,99916.27
2022-08-26T02:04:42.169Z,99915.80
2022-08-26T02:07:16.909Z,99916.39
2022-08-26T02:09:52.717Z,99902.98
2022-08-26T02:12:27.624Z,99893.94
2022-08-26T02:15:05.833Z,99906.34
2022-08-26T02:17:47.127Z,99916.08
2022-08-26T02:20:23.246Z,99916.11
2022-08-26T02:22:56.875Z,99914.95
2022-08-26T02:25:45.365Z,99912.60
2022-08-26T02:28:19.826Z,99897.41
2022-08-26T02:30:55.516Z,99908.60
2022-08-26T02:33:31.824Z,99904.81
2022-08-26T02:36:06.354Z,99907.86
2022-08-26T02:38:41.101Z,99900.67
2022-08-26T02:41:15.386Z,99911.53
2022-08-26T02:43:51.490Z,99915.94
2022-08-26T02:46:29.849Z,99896.16
2022-08-26T02:49:05.851Z,99918.24
2022-08-26T02:51:40.927Z,99917.27
2022-08-26T02:54:17.139Z,99918.59
2022-08-26T02:56:51.990Z,99924.05
2022-08-26T02:59:26.292Z,99918.60
2022-08-26T03:02:02.281Z,99909.79
2022-08-26T03:04:36.864Z,99910.73
2022-08-26T03:07:12.359Z,99906.43
2022-08-26T03:09:46.616Z,99913.20
2022-08-26T03:12:21.144Z,99918.65
2022-08-26T03:14:54.902Z,99916.02
2022-08-26T03:17:29.241Z,99920.15
2022-08-26T03:20:03.981Z,99922.20
2022-08-26T03:22:37.974Z,99922.38
2022-08-26T03:25:12.704Z,99924.50
2022-08-26T03:27:47.849Z,99916.65
2022-08-26T03:30:44.677Z,99916.09
2022-08-26T03:33:18.241Z,99915.37
2022-08-26T03:35:52.900Z,99923.72
2022-08-26T03:38:26.965Z,99923.35
2022-08-26T03:41:01.467Z,99921.16
2022-08-26T03:43:34.844Z,99900.16
2022-08-26T03:46:10.393Z,99903.70
2022-08-26T03:48:45.080Z,99916.81
2022-08-26T03:51:21.317Z,99917.77
2022-08-26T03:53:54.809Z,99914.04
2022-08-26T03:56:28.204Z,99911.24
2022-08-26T03:59:04.061Z,99912.86
2022-08-26T04:01:38.476Z,99917.88
2022-08-26T04:04:15.545Z,99920.60
2022-08-26T04:06:49.652Z,99915.89
2022-08-26T04:09:24.228Z,99911.30
2022-08-26T04:11:59.346Z,99901.80
2022-08-26T04:14:32.994Z,99910.11
2022-08-26T04:17:06.560Z,99915.66
2022-08-26T04:19:41.631Z,99904.84
2022-08-26T04:22:15.391Z,99907.67
2022-08-26T04:24:59.214Z,99918.91
2022-08-26T04:27:32.199Z,99921.45
2022-08-26T04:30:06.323Z,99917.71
2022-08-26T04:32:42.270Z,99914.00
2022-08-26T04:35:15.789Z,99916.39
2022-08-26T04:37:51.091Z,99893.52
2022-08-26T04:40:25.159Z,99913.69
2022-08-26T04:43:00.643Z,99916.06
2022-08-26T04:45:34.056Z,99916.10
2022-08-26T04:48:07.894Z,99916.14
2022-08-26T04:50:44.160Z,99914.24
2022-08-26T04:53:23.807Z,99904.55
2022-08-26T04:55:57.848Z,99907.27
2022-08-26T04:58:31.043Z,99905.03
2022-08-26T05:01:05.672Z,99908.81
2022-08-26T05:03:39.666Z,99910.66
2022-08-26T05:06:16.486Z,99915.16
2022-08-26T05:08:53.022Z,99900.98
2022-08-26T05:11:26.874Z,99895.71
2022-08-26T05:14:02.293Z,99914.65
2022-08-26T05:16:35.486Z,99922.10
2022-08-26T05:19:09.679Z,99916.80
2022-08-26T05:21:44.848Z,99926.31
2022-08-26T05:24:21.393Z,99922.04
2022-08-26T05:26:55.118Z,99921.55
2022-08-26T05:29:30.739Z,99924.52
2022-08-26T05:32:05.096Z,99925.03
2022-08-26T05:34:38.762Z,99925.13
2022-08-26T05:37:13.608Z,99916.45
2022-08-26T05:39:51.290Z,99918.35
2022-08-26T05:42:27.176Z,99924.52
2022-08-26T05:45:01.652Z,99932.00
2022-08-26T05:47:38.161Z,99929.78
2022-08-26T05:50:13.189Z,99930.92
2022-08-26T05:52:47.710Z,99921.85
2022-08-26T05:55:22.049Z,99925.80
2022-08-26T05:57:55.791Z,99931.52
2022-08-26T06:00:29.357Z,99932.85
2022-08-26T06:03:03.081Z,99922.31
2022-08-26T06:05:45.649Z,99920.55
2022-08-26T06:08:22.127Z,99915.59
2022-08-26T06:10:58.396Z,99917.27
2022-08-26T06:13:32.693Z,99924.88
2022-08-26T06:16:14.852Z,99923.96
2022-08-26T06:18:49.936Z,99923.70
2022-08-26T06:21:28.045Z,99913.69
2022-08-26T06:24:27.049Z,99919.04
2022-08-26T06:27:11.359Z,99919.70
2022-08-26T06:29:45.276Z,99905.98
2022-08-26T06:32:19.083Z,99911.93
2022-08-26T06:34:54.690Z,99913.59
2022-08-26T06:37:28.643Z,99910.72
2022-08-26T06:40:03.658Z,99905.15
2022-08-26T06:42:38.749Z,99899.65
2022-08-26T06:45:13.696Z,99893.86
2022-08-26T06:47:47.458Z,99888.29
2022-08-26T06:50:23.086Z,99889.73
2022-08-26T06:52:57.154Z,99899.25
2022-08-26T06:55:34.864Z,99898.19
2022-08-26T06:58:10.023Z,99900.46
2022-08-26T07:00:47.341Z,99897.70
2022-08-26T07:03:22.614Z,99896.36
2022-08-26T07:06:02.890Z,99895.25
2022-08-26T07:08:36.739Z,99897.02
2022-08-26T07:11:12.035Z,99887.13
2022-08-26T07:13:47.384Z,99886.50
2022-08-26T07:16:22.752Z,99877.56
2022-08-26T07:18:59.060Z,99888.44
2022-08-26T07:21:34.591Z,99887.52
2022-08-26T07:24:08.747Z,99885.80
2022-08-26T07:26:44.746Z,99881.05
2022-08-26T07:29:19.148Z,99885.27
2022-08-26T07:31:52.681Z,99875.75
2022-08-26T07:34:26.402Z,99871.76
2022-08-26T07:37:00.691Z,99870.42
2022-08-26T07:39:35.042Z,99863.77
2022-08-26T07:42:10.305Z,99869.02
2022-08-26T07:44:45.070Z,99856.51
2022-08-26T07:47:24.932Z,99855.71
2022-08-26T07:50:01.176Z,99860.54
2022-08-26T07:52:35.257Z,99864.45
2022-08-26T07:55:10.165Z,99862.45
2022-08-26T07:57:43.373Z,99855.02
2022-08-26T08:00:18.471Z,99861.36
2022-08-26T08:02:52.576Z,99863.80
2022-08-26T08:05:33.732Z,99853.38
2022-08-26T08:08:26.988Z,99857.11
2022-08-26T08:11:04.831Z,99854.09
2022-08-26T08:13:40.202Z,99844.98
2022-08-26T08:16:13.790Z,99848.91
2022-08-26T08:18:47.785Z,99841.80
2022-08-26T08:21:23.989Z,99839.20
2022-08-26T08:23:59.396Z,99828.29
2022-08-26T08:26:32.444Z,99836.41
2022-08-26T08:29:06.158Z,99839.73
2022-08-26T08:31:56.535Z,99838.96
2022-08-26T08:34:34.322Z,99837.61
2022-08-26T08:37:11.564Z,99837.01
2022-08-26T08:39:45.239Z,99835.43
2022-08-26T08:42:41.733Z,99831.79
2022-08-26T08:45:37.041Z,99828.98
2022-08-26T08:48:27.921Z,99823.13
2022-08-26T08:51:29.211Z,99827.89
2022-08-26T08:54:03.752Z,99828.52
2022-08-26T08:56:55.880Z,99823.59
2022-08-26T08:59:42.432Z,99818.54
2022-08-26T09:02:18.544Z,99811.17
2022-08-26T09:05:08.668Z,99803.34
2022-08-26T09:08:11.191Z,99808.17
2022-08-26T09:10:51.417Z,99801.28
2022-08-26T09:13:27.346Z,99794.34
2022-08-26T09:16:04.755Z,99801.80
2022-08-26T09:18:40.442Z,99800.39
2022-08-26T09:21:17.918Z,99792.36
2022-08-26T09:23:56.805Z,99783.19
2022-08-26T09:26:49.897Z,99796.77
2022-08-26T09:29:30.842Z,99787.41
2022-08-26T09:32:22.658Z,99787.67
2022-08-26T09:35:06.869Z,99790.16
2022-08-26T09:40:39.188Z,99787.92
2022-08-26T09:43:23.185Z,99794.58
2022-08-26T09:46:13.123Z,99791.87
2022-08-26T09:48:46.469Z,99790.70
2022-08-26T09:51:25.207Z,99784.77
2022-08-26T09:54:01.322Z,99779.61
2022-08-26T09:56:37.593Z,99789.47
2022-08-26T09:59:13.923Z,99787.13
2022-08-26T10:01:48.077Z,99778.66
2022-08-26T10:04:27.439Z,99771.52
2022-08-26T10:07:09.474Z,99774.25
2022-08-26T10:09:46.000Z,99777.48
2022-08-26T10:12:23.905Z,99772.96
2022-08-26T10:15:02.508Z,99780.05
2022-08-26T10:17:51.969Z,99771.45
2022-08-26T10:20:38.182Z,99772.89
2022-08-26T10:23:23.324Z,99772.83
2022-08-26T10:26:06.964Z,99763.94
2022-08-26T10:28:45.993Z,99767.66
2022-08-26T10:31:38.098Z,99767.43
2022-08-26T10:34:15.194Z,99765.17
2022-08-26T10:37:16.216Z,99768.23
2022-08-26T10:40:06.305Z,99766.25
2022-08-26T10:42:53.905Z,99754.48
2022-08-26T10:45:31.236Z,99759.00
2022-08-26T10:48:14.882Z,99755.59
2022-08-26T10:50:48.878Z,99756.46
2022-08-26T10:53:56.379Z,99756.96
2022-08-26T10:56:30.819Z,99758.73
2022-08-26T10:59:29.403Z,99754.89
2022-08-26T11:02:36.817Z,99755.52
2022-08-26T11:05:23.209Z,99757.61
2022-08-26T11:08:16.445Z,99754.81
2022-08-26T11:11:00.073Z,99748.27
2022-08-26T11:14:01.739Z,99756.81
2022-08-26T11:16:43.825Z,99757.38
2022-08-26T11:20:01.928Z,99755.11
2022-08-26T11:22:47.469Z,99751.75
2022-08-26T11:25:30.208Z,99749.93
2022-08-26T11:28:06.358Z,99754.71
2022-08-26T11:30:44.802Z,99750.05
2022-08-26T11:33:46.733Z,99745.95
2022-08-26T11:36:36.932Z,99752.20
2022-08-26T11:39:24.799Z,99755.17
2022-08-26T11:42:05.212Z,99751.55
2022-08-26T11:44:49.095Z,99753.48
2022-08-26T11:47:31.605Z,99750.44
2022-08-26T11:50:26.821Z,99748.88
2022-08-26T11:53:07.674Z,99748.05
2022-08-26T11:55:47.302Z,99749.33
2022-08-26T11:58:22.630Z,99749.22
2022-08-26T12:01:11.596Z,99744.34
2022-08-26T12:03:53.694Z,99739.11
2022-08-26T12:06:30.506Z,99736.20
2022-08-26T12:09:07.790Z,99738.95
2022-08-26T12:11:42.099Z,99735.52
2022-08-26T12:14:27.669Z,99723.06
2022-08-26T12:17:17.187Z,99738.36
2022-08-26T12:19:53.615Z,99734.73
2022-08-26T12:22:39.912Z,99736.59
2022-08-26T12:25:27.132Z,99733.05
2022-08-26T12:28:10.436Z,99732.16
2022-08-26T12:31:08.924Z,99715.70
2022-08-26T12:33:43.008Z,99714.15
2022-08-26T12:36:21.757Z,99723.60
2022-08-26T12:38:58.313Z,99721.55
2022-08-26T12:42:24.028Z,99715.09
2022-08-26T12:45:04.950Z,99719.81
2022-08-26T12:47:46.133Z,99717.80
2022-08-26T12:50:25.874Z,99718.49
2022-08-26T12:53:18.760Z,99717.13
2022-08-26T12:56:04.340Z,99706.10
2022-08-26T12:58:39.787Z,99711.39
2022-08-26T13:01:12.551Z,99702.71
2022-08-26T13:03:48.068Z,99710.86
2022-08-26T13:06:24.127Z,99709.46
2022-08-26T13:08:59.957Z,99707.69
2022-08-26T13:11:43.261Z,99706.32
2022-08-26T13:14:23.721Z,99705.03
2022-08-26T13:16:56.632Z,99704.68
2022-08-26T13:19:30.141Z,99706.52
2022-08-26T13:22:05.729Z,99709.12
2022-08-26T13:24:46.429Z,99708.83
2022-08-26T13:27:23.978Z,99706.80
2022-08-26T13:29:58.840Z,99706.27
2022-08-26T13:32:33.602Z,99705.38
2022-08-26T13:35:07.323Z,99703.55
2022-08-26T13:37:40.778Z,99703.39
2022-08-26T13:40:15.418Z,99712.29
2022-08-26T13:42:49.981Z,99709.08
2022-08-26T13:45:23.722Z,99708.73
2022-08-26T13:47:56.951Z,99713.70
2022-08-26T13:50:30.270Z,99703.80
2022-08-26T13:53:03.620Z,99712.16
2022-08-26T13:55:36.466Z,99709.70
2022-08-26T13:58:10.268Z,99707.25
2022-08-26T14:00:46.022Z,99708.95
2022-08-26T14:03:20.782Z,99711.23
2022-08-26T14:05:55.870Z,99710.54
2022-08-26T14:08:30.219Z,99710.73
2022-08-26T14:11:03.908Z,99711.08
2022-08-26T14:13:38.162Z,99712.88
2022-08-26T14:16:16.838Z,99711.95
2022-08-26T14:18:51.150Z,99713.92
2022-08-26T14:21:25.903Z,99712.06
2022-08-26T14:24:01.023Z,99711.13
2022-08-26T14:26:35.423Z,99709.82
2022-08-26T14:29:10.592Z,99707.95
2022-08-26T14:31:46.153Z,99705.76
2022-08-26T14:34:19.719Z,99706.88
2022-08-26T14:36:53.060Z,99704.54
2022-08-26T14:39:26.936Z,99701.30
2022-08-26T14:42:01.162Z,99694.11
2022-08-26T14:44:35.785Z,99705.05
2022-08-26T14:47:09.670Z,99703.79
2022-08-26T14:49:42.580Z,99701.85
2022-08-26T14:52:15.712Z,99695.98
2022-08-26T14:54:54.889Z,99692.80
2022-08-26T14:57:29.877Z,99687.83
2022-08-26T15:00:02.691Z,99693.98
2022-08-26T15:02:35.526Z,99701.65
2022-08-26T15:05:09.176Z,99701.80
2022-08-26T15:07:42.662Z,99702.17
2022-08-26T15:10:18.871Z,99703.31
2022-08-26T15:12:52.614Z,99699.71
2022-08-26T15:15:26.544Z,99695.98
2022-08-26T15:18:00.021Z,99697.73
2022-08-26T15:23:12.752Z,99687.88
2022-08-26T15:25:48.813Z,99694.98
2022-08-26T15:28:22.644Z,99696.85
2022-08-26T15:30:57.430Z,99697.54
2022-08-26T15:33:31.448Z,99696.80
2022-08-26T15:36:05.876Z,99696.20
2022-08-26T15:38:43.904Z,99697.89
2022-08-26T15:41:18.185Z,99697.86
2022-08-26T15:43:52.483Z,99700.33
2022-08-26T15:46:27.165Z,99694.27
2022-08-26T15:49:00.229Z,99693.46
2022-08-26T15:51:45.341Z,99689.47
2022-08-26T15:54:23.046Z,99700.81
2022-08-26T15:56:56.448Z,99699.41
2022-08-26T15:59:32.282Z,99696.34
2022-08-26T16:02:06.033Z,99696.00
2022-08-26T16:04:39.240Z,99698.48
2022-08-26T16:07:12.954Z,99697.34
2022-08-26T16:09:46.234Z,99693.36
2022-08-26T16:12:28.476Z,99695.95
2022-08-26T16:15:01.775Z,99704.59
2022-08-26T16:17:35.068Z,99706.80
2022-08-26T16:20:08.741Z,99703.48
2022-08-26T16:22:41.627Z,99701.19
2022-08-26T16:25:14.694Z,99705.08
2022-08-26T16:27:47.534Z,99698.77
2022-08-26T16:30:22.270Z,99685.95
2022-08-26T16:32:57.913Z,99701.91
2022-08-26T16:35:31.150Z,99701.46
2022-08-26T16:38:03.918Z,99699.04
2022-08-26T16:40:38.179Z,99698.00
2022-08-26T16:43:11.098Z,99695.65
2022-08-26T16:45:50.591Z,99688.52
2022-08-26T16:48:24.220Z,99699.86
2022-08-26T16:50:57.624Z,99703.41
2022-08-26T16:53:30.967Z,99706.08
2022-08-26T16:56:05.439Z,99712.33
2022-08-26T16:58:39.734Z,99702.07
2022-08-26T17:01:13.290Z,99707.02
2022-08-26T17:03:46.535Z,99710.84
2022-08-26T17:06:20.077Z,99715.55
2022-08-26T17:08:53.748Z,99715.97
2022-08-26T17:11:26.814Z,99720.18
2022-08-26T17:13:59.688Z,99721.11
2022-08-26T17:16:32.815Z,99716.73
2022-08-26T17:19:06.950Z,99717.71
2022-08-26T17:21:41.148Z,99720.60
2022-08-26T17:24:14.395Z,99722.83
2022-08-26T17:26:53.427Z,99721.77
2022-08-26T17:29:31.255Z,99726.14
2022-08-26T17:32:05.890Z,99730.85
2022-08-26T17:34:39.739Z,99737.92
2022-08-26T17:37:12.860Z,99736.14
2022-08-26T17:39:45.971Z,99742.73
2022-08-26T17:42:19.491Z,99738.69
2022-08-26T17:44:53.021Z,99747.90
2022-08-26T17:47:25.949Z,99737.80
2022-08-26T17:49:59.250Z,99747.48
2022-08-26T17:52:32.685Z,99742.09
2022-08-26T17:55:06.340Z,99747.83
2022-08-26T17:57:40.621Z,99749.86
2022-08-26T18:00:20.407Z,99746.59
2022-08-26T18:02:53.621Z,99737.56
2022-08-26T18:05:28.027Z,99730.67
2022-08-26T18:08:03.880Z,99743.94
2022-08-26T18:10:38.577Z,99742.46
2022-08-26T18:13:12.921Z,99740.95
2022-08-26T18:15:49.348Z,99740.80
2022-08-26T18:18:23.512Z,99740.10
2022-08-26T18:21:01.628Z,99733.27
2022-08-26T18:23:36.240Z,99739.91
2022-08-26T18:26:11.393Z,99735.91
2022-08-26T18:28:46.603Z,99733.86
2022-08-26T18:31:20.074Z,99745.41
2022-08-26T18:33:53.634Z,99749.34
2022-08-26T18:36:32.149Z,99737.92
2022-08-26T18:39:06.386Z,99743.02
2022-08-26T18:41:45.451Z,99748.77
2022-08-26T18:44:21.932Z,99754.93
2022-08-26T18:46:56.035Z,99750.90
2022-08-26T18:49:29.782Z,99746.80
2022-08-26T18:52:02.875Z,99751.54
2022-08-26T18:54:36.147Z,99749.77
2022-08-26T18:57:09.174Z,99739.99
2022-08-26T18:59:42.417Z,99748.81
2022-08-26T19:02:16.097Z,99749.04
2022-08-26T19:04:49.590Z,99748.79
2022-08-26T19:07:23.956Z,99749.11
2022-08-26T19:09:56.820Z,99747.86
2022-08-26T19:12:30.196Z,99752.04
2022-08-26T19:15:07.390Z,99745.46
2022-08-26T19:17:40.763Z,99756.16
2022-08-26T19:20:14.331Z,99758.90
2022-08-26T19:22:47.786Z,99758.11
2022-08-26T19:25:21.249Z,99757.27
2022-08-26T19:27:54.494Z,99752.81
2022-08-26T19:30:28.483Z,99747.94
2022-08-26T19:33:05.971Z,99738.61
2022-08-26T19:35:41.302Z,99744.55
2022-08-26T19:38:15.960Z,99755.05
2022-08-26T19:40:49.574Z,99756.98
2022-08-26T19:43:23.309Z,99739.70
2022-08-26T19:45:57.948Z,99766.08
2022-08-26T19:48:32.435Z,99764.05
2022-08-26T19:51:07.076Z,99755.04
2022-08-26T19:53:41.402Z,99762.77
2022-08-26T19:56:16.046Z,99764.33
2022-08-26T19:58:49.446Z,99760.45
2022-08-26T20:01:23.824Z,99759.02
2022-08-26T20:03:57.781Z,99759.67
2022-08-26T20:06:31.597Z,99758.16
2022-08-26T20:09:05.423Z,99763.96
2022-08-26T20:11:39.759Z,99763.83
2022-08-26T20:14:13.807Z,99769.67
2022-08-26T20:16:48.290Z,99769.16
2022-08-26T20:19:40.624Z,99769.95
2022-08-26T20:22:14.921Z,99763.97
2022-08-26T20:24:50.125Z,99765.95
2022-08-26T20:27:37.852Z,99755.63
2022-08-26T20:30:14.188Z,99759.76
2022-08-26T20:32:49.007Z,99750.38
2022-08-26T20:35:24.464Z,99761.39
2022-08-26T20:37:58.696Z,99764.82
2022-08-26T20:40:34.039Z,99766.88
2022-08-26T20:43:08.069Z,99759.50
2022-08-26T20:45:42.286Z,99748.52
2022-08-26T20:48:15.954Z,99767.63
2022-08-26T20:50:49.425Z,99766.19
2022-08-26T20:53:22.754Z,99763.79
2022-08-26T20:56:04.315Z,99765.63
2022-08-26T20:58:38.469Z,99765.63
2022-08-26T21:01:18.806Z,99762.77
2022-08-26T21:03:55.332Z,99767.21
2022-08-26T21:06:28.751Z,99758.14
2022-08-26T21:09:03.461Z,99752.69
2022-08-26T21:11:39.373Z,99772.05
2022-08-26T21:14:16.687Z,99771.41
2022-08-26T21:16:51.447Z,99767.64
2022-08-26T21:19:25.120Z,99765.66
2022-08-26T21:22:00.262Z,99765.23
2022-08-26T21:24:33.928Z,99772.05
2022-08-26T21:27:07.410Z,99771.90
2022-08-26T21:29:40.700Z,99770.86
2022-08-26T21:32:15.762Z,99769.36
2022-08-26T21:34:49.131Z,99761.92
2022-08-26T21:37:22.209Z,99769.73
2022-08-26T21:39:58.957Z,99769.72
2022-08-26T21:42:34.966Z,99766.96
2022-08-26T21:45:09.341Z,99758.85
2022-08-26T21:47:42.887Z,99759.35
2022-08-26T21:50:16.222Z,99766.77
2022-08-26T21:52:49.739Z,99767.88
2022-08-26T21:55:23.472Z,99769.56
2022-08-26T21:57:56.742Z,99777.05
2022-08-26T22:00:29.824Z,99770.54
2022-08-26T22:03:03.014Z,99767.75
2022-08-26T22:05:36.154Z,99765.34
2022-08-26T22:08:09.156Z,99767.58
2022-08-26T22:10:45.597Z,99775.52
2022-08-26T22:13:19.390Z,99776.00
2022-08-26T22:15:52.863Z,99772.52
2022-08-26T22:18:30.037Z,99770.73
2022-08-26T22:21:06.119Z,99768.45
2022-08-26T22:23:41.001Z,99761.51
2022-08-26T22:26:15.719Z,99763.56
2022-08-26T22:29:02.890Z,99757.34
2022-08-26T22:31:38.727Z,99766.46
2022-08-26T22:34:16.170Z,99767.44
2022-08-26T22:36:50.704Z,99764.88
2022-08-26T22:39:27.183Z,99764.30
2022-08-26T22:42:00.888Z,99772.21
2022-08-26T22:44:37.618Z,99764.24
2022-08-26T22:47:11.383Z,99760.70
2022-08-26T22:49:47.227Z,99765.11
2022-08-26T22:52:20.852Z,99771.39
2022-08-26T22:54:54.463Z,99762.17
2022-08-26T22:57:28.633Z,99762.73
2022-08-26T23:00:03.153Z,99767.27
2022-08-26T23:02:37.344Z,99756.33
2022-08-26T23:05:12.565Z,99751.55
2022-08-26T23:07:46.740Z,99766.48
2022-08-26T23:10:20.793Z,99771.95
2022-08-26T23:12:55.983Z,99775.55
2022-08-26T23:15:30.383Z,99782.33
2022-08-26T23:18:05.069Z,99782.83
2022-08-26T23:20:39.464Z,99783.79
2022-08-26T23:23:13.523Z,99777.98
2022-08-26T23:25:48.586Z,99776.89
2022-08-26T23:28:23.123Z,99773.04
2022-08-26T23:30:58.083Z,99770.69
2022-08-26T23:33:53.122Z,99757.89
2022-08-26T23:36:26.545Z,99775.05
2022-08-26T23:38:59.586Z,99770.14
2022-08-26T23:41:32.915Z,99776.59
2022-08-26T23:44:06.648Z,99775.26
2022-08-26T23:46:39.723Z,99776.96
2022-08-26T23:49:13.020Z,99776.84
2022-08-26T23:52:05.124Z,99773.44
2022-08-26T23:54:37.120Z,99764.48
2022-08-26T23:57:09.912Z,99777.11
2022-08-26T23:59:43.748Z,99773.91
